ICAO code: LHPR | IATA code: QGY | AFTN: LHPRZPZX | english | deutsch
Időjárás: 2017-06-25 20:40 (UTC) | Hőmérséklet: 19.4 °C | QNH: 1014.2 hPa | Szél: 3.1 m/s | Részletek
Live ATC LHPR
Webkameránk élőképe

Győr-Pér Repülőtér időjárás adatok

Metar:
METAR LHPR 252045Z AUTO 23006KT 9999 -RA NSC 19/18 Q1014 RMK BL


Taf:
TAF LHPR 252000Z NIL


Jelenidő:
Eső, nem ónos, gyenge
Időbélyeg: 2017-06-25 20:40:00 UTC
Hőmérséklet:
19.4 °C
 
Harmatpont:
17.7 °C
 
Rel. páratartalom:
91%
 
QNH:
1014.2 hPa
 
Szélsebesség:
3.1 m/s
Max:
3.5 m/s
Szélirány:
230°
 
Csapadék (1 óra):
0.0 mm
 
Látótávolság:
15677 m
 
RVR:
>1500 m RWY30
 
1. felhőréteg mennyisége:
6 octa
 
1. felhőréteg alapja:
3490 m


Az adatokat szolgáltatja
az Országos Meteorológiai Szolgálat
Győr-Pér Repülőtér | H 9099 Pér, Repülőtér | Tel: +36/96/559-200 | Fax: +36/96/559-202

ICAO code: LHPR | IATA code: QGY | AFTN: LHPRZPZX


weboldal tervezés: IRQ